Time;durP1;ratioP1;P1;durP2;ratioP2;P2;SDS_P1;SDS_P2;PMS_P1;PMS_P2;Temp;Humidity;BMP_temperature;BMP_pressure;BME280_temperature;BME280_humidity;BME280_pressure;Samples;Min_cycle;Max_cycle;Signal;HPM_P1;HPM_P2
2022/10/15 00:00:49;;;;;;;76.93;36.55;;;;;;;;;;5138838;27;20031;-76
2022/10/15 00:03:15;;;;;;;74.97;36.42;;;;;;;;;;5124990;27;20039;-76
2022/10/15 00:05:41;;;;;;;70.45;35.55;;;;;;;;;;5141610;27;20067;-76
2022/10/15 00:08:09;;;;;;;72.97;36.25;;;;;;;;;;5106024;27;20038;-77
2022/10/15 00:10:35;;;;;;;73.28;34.95;;;;;;;;;;5149533;27;20069;-77
2022/10/15 00:13:01;;;;;;;77.90;36.35;;;;;;;;;;5113970;27;20030;-69
2022/10/15 00:15:28;;;;;;;68.32;33.88;;;;;;;;;;5113262;27;20054;-77
2022/10/15 00:17:54;;;;;;;63.75;34.70;;;;;;;;;;5132167;27;20039;-77
2022/10/15 00:20:21;;;;;;;73.45;34.63;;;;;;;;;;5138467;27;20068;-77
2022/10/15 00:22:47;;;;;;;68.70;34.90;;;;;;;;;;5134325;27;20043;-76
2022/10/15 00:25:13;;;;;;;78.88;35.42;;;;;;;;;;5139423;27;20506;-77
2022/10/15 00:27:39;;;;;;;72.13;34.58;;;;;;;;;;5142315;27;20042;-77
2022/10/15 00:30:06;;;;;;;73.45;35.33;;;;;;;;;;5120930;27;20050;-69
2022/10/15 00:32:32;;;;;;;65.60;34.65;;;;;;;;;;5118283;27;20380;-70
2022/10/15 00:34:58;;;;;;;63.47;35.10;;;;;;;;;;5115146;27;20046;-69
2022/10/15 00:37:24;;;;;;;67.35;34.33;;;;;;;;;;5127037;27;20035;-77
2022/10/15 00:39:50;;;;;;;66.50;34.63;;;;;;;;;;5119902;27;20043;-77
2022/10/15 00:42:16;;;;;;;75.18;35.75;;;;;;;;;;5133159;27;20045;-70
2022/10/15 00:44:47;;;;;;;65.03;33.15;;;;;;;;;;5134114;27;20035;-70
2022/10/15 00:47:17;;;;;;;67.70;33.92;;;;;;;;;;5098018;27;20039;-69
2022/10/15 00:49:50;;;;;;;71.10;35.90;;;;;;;;;;5091945;27;20449;-69
2022/10/15 00:52:23;;;;;;;75.47;35.85;;;;;;;;;;5119420;27;20506;-69
2022/10/15 00:54:52;;;;;;;64.97;35.20;;;;;;;;;;5126505;27;20053;-70
2022/10/15 00:57:19;;;;;;;73.72;36.20;;;;;;;;;;5117309;27;20034;-70
2022/10/15 00:59:48;;;;;;;74.07;36.30;;;;;;;;;;5135404;27;20487;-70
2022/10/15 01:02:16;;;;;;;72.03;35.97;;;;;;;;;;5116707;27;20057;-70
2022/10/15 01:04:42;;;;;;;75.78;36.42;;;;;;;;;;5114778;27;20543;-69
2022/10/15 01:07:08;;;;;;;73.15;36.95;;;;;;;;;;5133058;27;20518;-69
2022/10/15 01:09:34;;;;;;;72.07;35.67;;;;;;;;;;5115503;27;20039;-69
2022/10/15 01:12:01;;;;;;;68.75;36.08;;;;;;;;;;5106504;28;20044;-69
2022/10/15 01:14:29;;;;;;;77.55;37.13;;;;;;;;;;5141613;27;20034;-69
2022/10/15 01:17:02;;;;;;;71.95;35.90;;;;;;;;;;5104834;27;20130;-69
2022/10/15 01:19:28;;;;;;;72.75;36.78;;;;;;;;;;5115555;27;20031;-69
2022/10/15 01:22:03;;;;;;;68.97;35.25;;;;;;;;;;5132711;27;20046;-69
2022/10/15 01:24:29;;;;;;;75.47;36.97;;;;;;;;;;5147013;27;20031;-70
2022/10/15 01:27:25;;;;;;;71.47;34.05;;;;;;;;;;5126986;27;20035;-69
2022/10/15 01:30:03;;;;;;;74.22;37.25;;;;;;;;;;5087558;27;20043;-69
2022/10/15 01:32:34;;;;;;;65.40;33.72;;;;;;;;;;5113512;27;20035;-69
2022/10/15 01:35:19;;;;;;;66.68;34.53;;;;;;;;;;5137478;27;20043;-69
2022/10/15 01:37:51;;;;;;;72.53;37.17;;;;;;;;;;5142026;27;20135;-69
2022/10/15 01:40:40;;;;;;;72.22;36.00;;;;;;;;;;5134959;27;20507;-70
2022/10/15 01:43:11;;;;;;;64.78;35.00;;;;;;;;;;5113380;27;20047;-77
2022/10/15 01:45:40;;;;;;;70.28;35.88;;;;;;;;;;5138635;27;20052;-77
2022/10/15 01:48:08;;;;;;;69.07;35.15;;;;;;;;;;5122614;28;20136;-69
2022/10/15 01:50:35;;;;;;;67.45;35.55;;;;;;;;;;5134035;27;20035;-69
2022/10/15 01:53:02;;;;;;;68.43;34.88;;;;;;;;;;5121785;27;20095;-78
2022/10/15 01:55:30;;;;;;;64.72;34.65;;;;;;;;;;5123277;27;20503;-78
2022/10/15 01:57:57;;;;;;;64.88;33.85;;;;;;;;;;5128401;27;20031;-69
2022/10/15 02:00:23;;;;;;;63.97;35.30;;;;;;;;;;5124898;28;20100;-69
2022/10/15 02:02:49;;;;;;;66.95;34.60;;;;;;;;;;5103292;27;20034;-69
2022/10/15 02:05:19;;;;;;;62.15;32.25;;;;;;;;;;5093914;28;20123;-69
2022/10/15 02:07:58;;;;;;;60.03;32.63;;;;;;;;;;5113970;27;20047;-69
2022/10/15 02:10:29;;;;;;;67.05;33.63;;;;;;;;;;5132777;27;20050;-69
2022/10/15 02:13:02;;;;;;;60.85;31.38;;;;;;;;;;5142705;27;20074;-69
2022/10/15 02:15:34;;;;;;;62.17;33.42;;;;;;;;;;5135942;27;20118;-69
2022/10/15 02:18:01;;;;;;;56.47;30.95;;;;;;;;;;5099795;27;20538;-69
2022/10/15 02:20:35;;;;;;;55.28;30.83;;;;;;;;;;5103509;27;20042;-69
2022/10/15 02:23:11;;;;;;;55.80;30.08;;;;;;;;;;5119532;27;20035;-77
2022/10/15 02:25:39;;;;;;;54.72;29.40;;;;;;;;;;5124680;27;20043;-78
2022/10/15 02:28:06;;;;;;;58.28;31.35;;;;;;;;;;5144476;27;20092;-77
2022/10/15 02:30:32;;;;;;;59.55;29.95;;;;;;;;;;5122597;27;20031;-69
2022/10/15 02:32:59;;;;;;;54.97;29.50;;;;;;;;;;5150981;27;20035;-69
2022/10/15 02:35:26;;;;;;;58.67;29.92;;;;;;;;;;5144320;27;20043;-69
2022/10/15 02:37:53;;;;;;;56.50;30.30;;;;;;;;;;5144633;27;20053;-70
2022/10/15 02:40:26;;;;;;;54.95;28.48;;;;;;;;;;5124368;27;20031;-70
2022/10/15 02:42:52;;;;;;;58.42;29.17;;;;;;;;;;5141520;27;20368;-70
2022/10/15 02:45:18;;;;;;;56.00;28.80;;;;;;;;;;5106677;27;20122;-70
2022/10/15 02:47:44;;;;;;;59.20;28.92;;;;;;;;;;5125416;27;20050;-69
2022/10/15 02:50:10;;;;;;;59.15;29.38;;;;;;;;;;5117371;27;20110;-69
2022/10/15 02:52:36;;;;;;;57.80;28.77;;;;;;;;;;5105706;27;20051;-69
2022/10/15 02:55:02;;;;;;;63.80;28.95;;;;;;;;;;5121953;27;20055;-69
2022/10/15 02:57:28;;;;;;;50.72;28.00;;;;;;;;;;5144154;27;20114;-69
2022/10/15 02:59:54;;;;;;;57.30;29.42;;;;;;;;;;5144319;27;20039;-69
2022/10/15 03:02:20;;;;;;;55.97;27.65;;;;;;;;;;5136904;27;20031;-69
2022/10/15 03:04:47;;;;;;;57.78;28.45;;;;;;;;;;5137151;27;20043;-69
2022/10/15 03:07:13;;;;;;;55.88;27.33;;;;;;;;;;5141093;27;20432;-77
2022/10/15 03:09:39;;;;;;;53.13;27.10;;;;;;;;;;5136119;27;20096;-77
2022/10/15 03:12:05;;;;;;;63.20;30.23;;;;;;;;;;5138870;27;20041;-77
2022/10/15 03:14:31;;;;;;;61.55;29.75;;;;;;;;;;5116853;27;20047;-77
2022/10/15 03:16:57;;;;;;;56.20;28.05;;;;;;;;;;5136927;27;20066;-77
2022/10/15 03:19:23;;;;;;;59.20;29.65;;;;;;;;;;5130625;27;20041;-77
2022/10/15 03:21:49;;;;;;;65.22;29.83;;;;;;;;;;5138761;27;20122;-77
2022/10/15 03:24:15;;;;;;;63.97;30.40;;;;;;;;;;5116356;27;20031;-78
2022/10/15 03:26:41;;;;;;;63.67;30.08;;;;;;;;;;5124523;27;20123;-77
2022/10/15 03:29:07;;;;;;;65.15;32.20;;;;;;;;;;5130744;27;20068;-78
2022/10/15 03:31:33;;;;;;;64.45;32.95;;;;;;;;;;5112560;27;20487;-77
2022/10/15 03:33:59;;;;;;;68.15;33.53;;;;;;;;;;5103025;27;20038;-69
2022/10/15 03:36:26;;;;;;;70.63;33.75;;;;;;;;;;5119867;27;20058;-69
2022/10/15 03:38:52;;;;;;;72.53;34.83;;;;;;;;;;5103745;27;20034;-78
2022/10/15 03:41:18;;;;;;;68.93;34.67;;;;;;;;;;5097767;27;20027;-77
2022/10/15 03:43:44;;;;;;;68.07;34.17;;;;;;;;;;5135742;27;20043;-69
2022/10/15 03:46:10;;;;;;;73.57;36.15;;;;;;;;;;5111149;27;20077;-69
2022/10/15 03:48:36;;;;;;;72.43;36.30;;;;;;;;;;5150766;27;20544;-69
2022/10/15 03:51:02;;;;;;;62.92;33.95;;;;;;;;;;5145155;27;20043;-70
2022/10/15 03:53:28;;;;;;;74.30;36.65;;;;;;;;;;5130844;27;20042;-70
2022/10/15 03:55:55;;;;;;;79.18;36.92;;;;;;;;;;5099339;27;20054;-69
2022/10/15 03:58:21;;;;;;;79.65;37.90;;;;;;;;;;5079823;27;20503;-78
2022/10/15 04:00:47;;;;;;;79.35;37.17;;;;;;;;;;5117782;27;20471;-78
2022/10/15 04:03:14;;;;;;;82.13;39.80;;;;;;;;;;5118246;27;20368;-70
2022/10/15 04:05:40;;;;;;;77.95;36.97;;;;;;;;;;5133481;27;20475;-69
2022/10/15 04:08:06;;;;;;;80.75;38.85;;;;;;;;;;5138144;27;20099;-69
2022/10/15 04:10:32;;;;;;;83.13;39.95;;;;;;;;;;5120033;27;20254;-69
2022/10/15 04:12:58;;;;;;;82.93;39.40;;;;;;;;;;5143232;27;20049;-70
2022/10/15 04:15:26;;;;;;;91.57;41.70;;;;;;;;;;5112191;27;20100;-70
2022/10/15 04:17:55;;;;;;;83.72;39.20;;;;;;;;;;5122354;27;20035;-69
2022/10/15 04:20:21;;;;;;;90.22;40.53;;;;;;;;;;5135103;27;20038;-69
2022/10/15 04:22:47;;;;;;;91.20;41.53;;;;;;;;;;5126677;27;20126;-69
2022/10/15 04:25:13;;;;;;;86.30;41.58;;;;;;;;;;5122194;27;20046;-70
2022/10/15 04:27:39;;;;;;;99.93;43.53;;;;;;;;;;5101592;27;20520;-69
2022/10/15 04:30:06;;;;;;;89.07;40.67;;;;;;;;;;5117981;27;20417;-69
2022/10/15 04:32:32;;;;;;;97.20;42.90;;;;;;;;;;5138839;27;20039;-69
2022/10/15 04:34:58;;;;;;;85.82;41.47;;;;;;;;;;5125170;27;20180;-76
2022/10/15 04:37:24;;;;;;;92.75;42.15;;;;;;;;;;5115892;27;20049;-77
2022/10/15 04:39:50;;;;;;;96.13;42.63;;;;;;;;;;5136988;27;20064;-78
2022/10/15 04:42:16;;;;;;;98.05;42.65;;;;;;;;;;5139320;27;20035;-69
2022/10/15 04:44:42;;;;;;;103.60;44.40;;;;;;;;;;5138934;27;20054;-69
2022/10/15 04:47:08;;;;;;;111.18;44.95;;;;;;;;;;5134198;27;20398;-69
2022/10/15 04:49:34;;;;;;;108.18;45.47;;;;;;;;;;5103372;27;20429;-69
2022/10/15 04:52:00;;;;;;;113.15;47.25;;;;;;;;;;5130620;27;20039;-69
2022/10/15 04:54:27;;;;;;;105.88;46.50;;;;;;;;;;5121776;27;20070;-69
2022/10/15 04:56:53;;;;;;;112.10;45.80;;;;;;;;;;5118649;27;20499;-77
2022/10/15 04:59:19;;;;;;;112.20;46.50;;;;;;;;;;5137781;27;20031;-77
2022/10/15 05:01:45;;;;;;;107.35;44.75;;;;;;;;;;5127278;27;20394;-78
2022/10/15 05:04:11;;;;;;;108.97;45.17;;;;;;;;;;5137712;27;20445;-77
2022/10/15 05:06:37;;;;;;;117.43;48.35;;;;;;;;;;5107927;27;20052;-69
2022/10/15 05:09:03;;;;;;;119.43;48.03;;;;;;;;;;5127548;27;20525;-69
2022/10/15 05:11:29;;;;;;;95.20;43.45;;;;;;;;;;5115859;27;20483;-77
2022/10/15 05:13:56;;;;;;;105.18;45.08;;;;;;;;;;5117273;27;20047;-77
2022/10/15 05:16:23;;;;;;;120.13;48.10;;;;;;;;;;5118810;27;20047;-77
2022/10/15 05:18:50;;;;;;;125.35;49.05;;;;;;;;;;5137726;27;20050;-77
2022/10/15 05:21:17;;;;;;;113.10;46.83;;;;;;;;;;5133145;27;20042;-70
2022/10/15 05:23:43;;;;;;;119.18;48.22;;;;;;;;;;5133095;27;20070;-69
2022/10/15 05:26:17;;;;;;;119.00;48.40;;;;;;;;;;5122401;27;20039;-69
2022/10/15 05:28:43;;;;;;;110.47;47.47;;;;;;;;;;5123405;27;20047;-69
2022/10/15 05:31:10;;;;;;;115.72;47.85;;;;;;;;;;5109757;28;20118;-69
2022/10/15 05:33:37;;;;;;;122.60;49.08;;;;;;;;;;5132706;27;20046;-69
2022/10/15 05:36:15;;;;;;;112.32;46.75;;;;;;;;;;5097808;28;20491;-69
2022/10/15 05:38:42;;;;;;;117.07;48.78;;;;;;;;;;5094042;28;20040;-69
2022/10/15 05:41:08;;;;;;;112.35;46.58;;;;;;;;;;5141595;27;20034;-69
2022/10/15 05:43:34;;;;;;;119.45;48.80;;;;;;;;;;5132670;27;20145;-69
2022/10/15 05:46:00;;;;;;;110.03;47.40;;;;;;;;;;5118512;28;20491;-69
2022/10/15 05:48:26;;;;;;;109.75;47.47;;;;;;;;;;5114550;28;20043;-69
2022/10/15 05:50:52;;;;;;;122.03;48.47;;;;;;;;;;5136543;27;20053;-69
2022/10/15 05:53:18;;;;;;;123.50;50.33;;;;;;;;;;5133014;27;20122;-69
2022/10/15 05:55:44;;;;;;;117.65;48.53;;;;;;;;;;5140229;27;20550;-69
2022/10/15 05:58:10;;;;;;;115.63;47.42;;;;;;;;;;5118884;27;20483;-69
2022/10/15 06:00:38;;;;;;;125.65;50.03;;;;;;;;;;5138493;27;20039;-69
2022/10/15 06:03:04;;;;;;;125.10;50.55;;;;;;;;;;5109362;27;20058;-76
2022/10/15 06:05:31;;;;;;;119.45;49.88;;;;;;;;;;5111796;27;20043;-77
2022/10/15 06:07:57;;;;;;;120.88;48.40;;;;;;;;;;5147147;27;20043;-77
2022/10/15 06:10:24;;;;;;;109.43;47.40;;;;;;;;;;5137783;27;20039;-77
2022/10/15 06:12:50;;;;;;;114.90;48.20;;;;;;;;;;5129503;27;20043;-77
2022/10/15 06:15:17;;;;;;;120.03;49.97;;;;;;;;;;5119811;27;20043;-77
2022/10/15 06:17:43;;;;;;;123.40;49.92;;;;;;;;;;5120352;27;20526;-77
2022/10/15 06:20:09;;;;;;;123.88;50.50;;;;;;;;;;5137083;27;20460;-69
2022/10/15 06:22:35;;;;;;;109.55;46.63;;;;;;;;;;5102633;27;20051;-69
2022/10/15 06:25:01;;;;;;;124.55;49.30;;;;;;;;;;5136653;27;20050;-69
2022/10/15 06:27:28;;;;;;;112.72;47.95;;;;;;;;;;5100255;27;20075;-69
2022/10/15 06:29:54;;;;;;;117.00;47.25;;;;;;;;;;5110944;27;20031;-78
2022/10/15 06:32:20;;;;;;;115.00;49.38;;;;;;;;;;5118091;27;20065;-77
2022/10/15 06:34:46;;;;;;;123.13;48.17;;;;;;;;;;5105779;27;20130;-77
2022/10/15 06:37:12;;;;;;;107.80;46.15;;;;;;;;;;5129172;27;20045;-78
2022/10/15 06:39:39;;;;;;;112.53;46.42;;;;;;;;;;5118124;27;20031;-77
2022/10/15 06:42:05;;;;;;;114.55;48.97;;;;;;;;;;5146196;27;20475;-77
2022/10/15 06:44:31;;;;;;;113.75;48.05;;;;;;;;;;5140921;27;20369;-78
2022/10/15 06:46:57;;;;;;;103.78;45.13;;;;;;;;;;5100225;27;20103;-78
2022/10/15 06:49:24;;;;;;;98.30;44.67;;;;;;;;;;5141057;27;20031;-77
2022/10/15 06:51:50;;;;;;;101.75;45.38;;;;;;;;;;5147557;27;20044;-77
2022/10/15 06:54:16;;;;;;;107.60;46.67;;;;;;;;;;5109414;27;20043;-77
2022/10/15 06:56:42;;;;;;;100.38;44.67;;;;;;;;;;5134765;27;20506;-69
2022/10/15 06:59:08;;;;;;;110.35;47.00;;;;;;;;;;5117451;27;20131;-69
2022/10/15 07:01:34;;;;;;;103.03;45.00;;;;;;;;;;5116588;28;20031;-69
2022/10/15 07:04:00;;;;;;;98.15;45.65;;;;;;;;;;5121331;27;20070;-69
2022/10/15 07:06:26;;;;;;;103.28;46.03;;;;;;;;;;5142528;27;20043;-69
2022/10/15 07:08:52;;;;;;;98.43;44.78;;;;;;;;;;5141731;27;20042;-69
2022/10/15 07:11:18;;;;;;;96.38;43.88;;;;;;;;;;5140000;27;20035;-69
2022/10/15 07:13:44;;;;;;;89.13;42.67;;;;;;;;;;5124714;27;20035;-69
2022/10/15 07:16:12;;;;;;;87.20;42.33;;;;;;;;;;5133883;27;20433;-70
2022/10/15 07:18:38;;;;;;;89.45;43.75;;;;;;;;;;5140457;27;20039;-78
2022/10/15 07:21:05;;;;;;;86.55;42.53;;;;;;;;;;5134331;27;20035;-78
2022/10/15 07:23:31;;;;;;;86.00;43.08;;;;;;;;;;5125511;28;20035;-69
2022/10/15 07:25:58;;;;;;;87.85;41.13;;;;;;;;;;5142518;27;20492;-69
2022/10/15 07:28:25;;;;;;;82.68;41.25;;;;;;;;;;5127548;27;20035;-69
2022/10/15 07:30:51;;;;;;;88.93;42.13;;;;;;;;;;5116035;27;20034;-69
2022/10/15 07:33:17;;;;;;;84.97;42.75;;;;;;;;;;5135472;27;20039;-78
2022/10/15 07:35:43;;;;;;;86.43;41.60;;;;;;;;;;5134442;28;20042;-78
2022/10/15 07:38:09;;;;;;;91.90;43.08;;;;;;;;;;5115173;28;20096;-77
2022/10/15 07:40:35;;;;;;;97.60;43.55;;;;;;;;;;5133568;28;20396;-77
2022/10/15 07:43:02;;;;;;;98.57;43.95;;;;;;;;;;5115049;28;20088;-78
2022/10/15 07:45:28;;;;;;;97.85;45.75;;;;;;;;;;5133198;28;20046;-77
2022/10/15 07:47:54;;;;;;;97.68;42.97;;;;;;;;;;5115371;28;20372;-77
2022/10/15 07:50:20;;;;;;;103.38;44.70;;;;;;;;;;5133731;28;20039;-78
2022/10/15 07:52:47;;;;;;;94.43;43.35;;;;;;;;;;5115817;28;20096;-78
2022/10/15 07:55:13;;;;;;;98.28;44.67;;;;;;;;;;5112254;28;144816;-78
2022/10/15 07:57:39;;;;;;;94.57;43.53;;;;;;;;;;5111636;28;20039;-78
2022/10/15 08:00:06;;;;;;;102.90;44.17;;;;;;;;;;5110617;27;20043;-77
2022/10/15 08:02:32;;;;;;;110.40;46.83;;;;;;;;;;5134759;27;20035;-77
2022/10/15 08:04:58;;;;;;;106.18;45.08;;;;;;;;;;5115902;27;20046;-78
2022/10/15 08:07:24;;;;;;;103.03;45.42;;;;;;;;;;5116341;27;20458;-77
2022/10/15 08:09:50;;;;;;;107.03;46.72;;;;;;;;;;5116675;27;20392;-79
2022/10/15 08:12:17;;;;;;;102.82;45.05;;;;;;;;;;5119332;27;20035;-78
2022/10/15 08:14:43;;;;;;;102.97;44.65;;;;;;;;;;5114494;27;20411;-78
2022/10/15 08:17:13;;;;;;;106.88;45.03;;;;;;;;;;5125691;27;20023;-69
2022/10/15 08:19:39;;;;;;;100.05;44.88;;;;;;;;;;5138287;27;20054;-69
2022/10/15 08:22:05;;;;;;;108.85;44.70;;;;;;;;;;5114151;27;20149;-69
2022/10/15 08:24:31;;;;;;;100.80;44.33;;;;;;;;;;5145384;27;20043;-69
2022/10/15 08:26:57;;;;;;;105.55;43.47;;;;;;;;;;5134607;27;20031;-69
2022/10/15 08:29:24;;;;;;;98.43;43.13;;;;;;;;;;5125865;27;20030;-69
2022/10/15 08:31:50;;;;;;;107.13;43.70;;;;;;;;;;5133535;27;20035;-69
2022/10/15 08:34:16;;;;;;;100.97;42.35;;;;;;;;;;5145034;27;20074;-69
2022/10/15 08:36:42;;;;;;;95.70;41.28;;;;;;;;;;5088218;27;20062;-69
2022/10/15 08:39:08;;;;;;;93.25;40.25;;;;;;;;;;5097661;27;20050;-69
2022/10/15 08:41:35;;;;;;;94.45;40.67;;;;;;;;;;5092114;28;20043;-69
2022/10/15 08:44:01;;;;;;;88.38;39.40;;;;;;;;;;5109912;27;20083;-69
2022/10/15 08:46:37;;;;;;;89.57;39.30;;;;;;;;;;5106932;27;20064;-69
2022/10/15 08:49:04;;;;;;;78.43;35.08;;;;;;;;;;5143432;27;20092;-69
2022/10/15 08:51:41;;;;;;;89.07;35.53;;;;;;;;;;5100013;28;20537;-68
2022/10/15 08:54:12;;;;;;;71.80;31.65;;;;;;;;;;5094425;28;20059;-68
2022/10/15 08:56:41;;;;;;;69.65;32.28;;;;;;;;;;5094862;28;20047;-78
2022/10/15 08:59:10;;;;;;;69.72;29.45;;;;;;;;;;5112909;28;20092;-78
2022/10/15 09:01:39;;;;;;;68.72;30.42;;;;;;;;;;5112977;28;20123;-78
2022/10/15 09:04:21;;;;;;;63.85;28.17;;;;;;;;;;5113084;28;20082;-78
2022/10/15 09:06:49;;;;;;;62.20;29.42;;;;;;;;;;5095011;28;20512;-78
2022/10/15 09:09:35;;;;;;;64.40;29.33;;;;;;;;;;5112811;28;20076;-79
2022/10/15 09:12:01;;;;;;;61.92;28.13;;;;;;;;;;5101842;28;20068;-79
2022/10/15 09:14:41;;;;;;;56.65;27.08;;;;;;;;;;5095158;28;20040;-79
2022/10/15 09:17:14;;;;;;;58.45;27.10;;;;;;;;;;5114167;28;20032;-78
2022/10/15 09:19:42;;;;;;;62.13;29.27;;;;;;;;;;5080067;28;20492;-78
2022/10/15 09:22:11;;;;;;;56.20;27.23;;;;;;;;;;5095598;28;20040;-78
2022/10/15 09:24:37;;;;;;;47.17;24.15;;;;;;;;;;5114053;28;20401;-79
2022/10/15 09:27:08;;;;;;;50.28;24.73;;;;;;;;;;5112325;28;20108;-78
2022/10/15 09:29:49;;;;;;;46.97;23.10;;;;;;;;;;5112212;27;20486;-78
2022/10/15 09:32:19;;;;;;;44.67;23.23;;;;;;;;;;5133321;27;20106;-78
2022/10/15 09:34:59;;;;;;;40.67;20.83;;;;;;;;;;5115626;28;20043;-79
2022/10/15 09:37:28;;;;;;;36.50;19.05;;;;;;;;;;5113995;28;20050;-78
2022/10/15 09:40:27;;;;;;;35.08;18.27;;;;;;;;;;5113836;28;20035;-79
2022/10/15 09:42:55;;;;;;;33.58;18.08;;;;;;;;;;5068623;28;20048;-78
2022/10/15 09:45:24;;;;;;;34.13;18.10;;;;;;;;;;5118470;28;20035;-79
2022/10/15 09:47:51;;;;;;;33.55;19.02;;;;;;;;;;5115378;28;20047;-78
2022/10/15 09:50:17;;;;;;;31.45;17.90;;;;;;;;;;5132684;28;20118;-79
2022/10/15 09:53:01;;;;;;;30.20;17.38;;;;;;;;;;5115461;28;20047;-78
2022/10/15 09:55:46;;;;;;;28.33;15.98;;;;;;;;;;5114256;28;20043;-78
2022/10/15 09:58:36;;;;;;;28.23;17.00;;;;;;;;;;5115013;28;20388;-79
2022/10/15 10:01:06;;;;;;;28.33;16.63;;;;;;;;;;5087866;28;20087;-79
2022/10/15 10:03:33;;;;;;;27.33;15.82;;;;;;;;;;5128501;28;20039;-78
2022/10/15 10:06:00;;;;;;;29.17;15.23;;;;;;;;;;5125265;28;20035;-78
2022/10/15 10:08:35;;;;;;;28.13;14.95;;;;;;;;;;5126743;28;20058;-78
2022/10/15 10:11:02;;;;;;;23.63;13.75;;;;;;;;;;5097693;28;20088;-79
2022/10/15 10:13:31;;;;;;;25.48;13.75;;;;;;;;;;5114126;28;20100;-78
2022/10/15 10:16:02;;;;;;;21.38;13.02;;;;;;;;;;5114404;28;20035;-79
2022/10/15 10:18:30;;;;;;;20.73;12.65;;;;;;;;;;5132917;28;20092;-79
2022/10/15 10:20:58;;;;;;;23.48;13.82;;;;;;;;;;5114829;28;20031;-78
2022/10/15 10:23:35;;;;;;;20.27;12.38;;;;;;;;;;5114468;28;20042;-78
2022/10/15 10:26:03;;;;;;;19.88;12.35;;;;;;;;;;5132933;28;20039;-78
2022/10/15 10:28:34;;;;;;;21.88;12.85;;;;;;;;;;5122118;28;20050;-68
2022/10/15 10:31:05;;;;;;;21.13;13.10;;;;;;;;;;5108184;28;20039;-70
2022/10/15 10:33:33;;;;;;;20.10;12.05;;;;;;;;;;5100169;28;20050;-68
2022/10/15 10:36:00;;;;;;;20.02;12.65;;;;;;;;;;5114228;28;20047;-68
2022/10/15 10:38:31;;;;;;;22.08;13.25;;;;;;;;;;5114331;27;20429;-68
2022/10/15 10:41:07;;;;;;;19.55;12.80;;;;;;;;;;5101453;27;20396;-68
2022/10/15 10:43:34;;;;;;;19.52;12.10;;;;;;;;;;5135893;27;20445;-69
2022/10/15 10:46:13;;;;;;;19.77;12.35;;;;;;;;;;5136241;27;20046;-69
2022/10/15 10:48:50;;;;;;;18.77;12.32;;;;;;;;;;5136405;27;20061;-68
2022/10/15 10:51:17;;;;;;;17.23;12.27;;;;;;;;;;5136049;27;20484;-78
2022/10/15 10:53:52;;;;;;;16.73;11.93;;;;;;;;;;5118009;27;20403;-69
2022/10/15 10:56:22;;;;;;;17.90;11.65;;;;;;;;;;5117232;27;20092;-69
2022/10/15 10:58:52;;;;;;;18.63;12.63;;;;;;;;;;5113165;28;20039;-69
2022/10/15 11:01:18;;;;;;;17.75;12.35;;;;;;;;;;5108316;27;20391;-68
2022/10/15 11:03:45;;;;;;;18.25;12.15;;;;;;;;;;5135853;27;20096;-68
2022/10/15 11:06:11;;;;;;;18.08;12.00;;;;;;;;;;5117773;27;20042;-68
2022/10/15 11:08:37;;;;;;;17.38;12.05;;;;;;;;;;5098796;27;20398;-68
2022/10/15 11:11:33;;;;;;;18.15;12.10;;;;;;;;;;5104669;27;20043;-69
2022/10/15 11:14:16;;;;;;;16.13;11.25;;;;;;;;;;5114092;27;20043;-69
2022/10/15 11:16:42;;;;;;;17.50;11.18;;;;;;;;;;5135645;27;20082;-68
2022/10/15 11:19:17;;;;;;;16.80;11.38;;;;;;;;;;5135578;27;20061;-78
2022/10/15 11:21:59;;;;;;;21.80;12.23;;;;;;;;;;5117272;27;20092;-78
2022/10/15 11:24:31;;;;;;;17.40;11.75;;;;;;;;;;5099835;27;20039;-79
2022/10/15 11:27:00;;;;;;;15.68;11.23;;;;;;;;;;5117143;27;20091;-79
2022/10/15 11:29:29;;;;;;;17.98;11.80;;;;;;;;;;5116519;27;20088;-78
2022/10/15 11:31:56;;;;;;;16.48;11.25;;;;;;;;;;5135804;27;20035;-79
2022/10/15 11:34:31;;;;;;;18.83;12.07;;;;;;;;;;5135323;27;20071;-78
2022/10/15 11:37:06;;;;;;;19.83;12.50;;;;;;;;;;5135386;27;20073;-78
2022/10/15 11:40:01;;;;;;;18.92;12.82;;;;;;;;;;5135359;27;20100;-78
2022/10/15 11:42:33;;;;;;;21.90;13.77;;;;;;;;;;5082068;28;20039;-78
2022/10/15 11:44:59;;;;;;;21.20;13.70;;;;;;;;;;5096530;28;20043;-77
2022/10/15 11:47:34;;;;;;;21.85;13.52;;;;;;;;;;5088308;27;20070;-78
2022/10/15 11:50:19;;;;;;;21.48;14.18;;;;;;;;;;5115886;28;20380;-78
2022/10/15 11:52:54;;;;;;;22.30;14.25;;;;;;;;;;5117140;27;20400;-78
2022/10/15 11:55:23;;;;;;;21.75;14.52;;;;;;;;;;5115875;27;20051;-69
2022/10/15 11:57:51;;;;;;;21.10;13.50;;;;;;;;;;5116911;27;20499;-69
2022/10/15 12:00:38;;;;;;;23.90;14.35;;;;;;;;;;5102390;27;20491;-69
2022/10/15 12:03:15;;;;;;;23.45;15.25;;;;;;;;;;5116920;27;20395;-69
2022/10/15 12:05:51;;;;;;;23.23;15.00;;;;;;;;;;5134308;27;20046;-69
2022/10/15 12:08:17;;;;;;;24.27;14.82;;;;;;;;;;5116498;27;20049;-70
2022/10/15 12:10:49;;;;;;;23.98;15.25;;;;;;;;;;5115709;27;20091;-69
2022/10/15 12:13:22;;;;;;;25.05;16.35;;;;;;;;;;5116310;27;20039;-69
2022/10/15 12:15:58;;;;;;;23.92;15.27;;;;;;;;;;5101341;27;20079;-69
2022/10/15 12:18:33;;;;;;;26.38;16.13;;;;;;;;;;5134144;27;20034;-78
2022/10/15 12:20:59;;;;;;;27.25;15.95;;;;;;;;;;5134484;27;20063;-78
2022/10/15 12:23:38;;;;;;;23.75;15.48;;;;;;;;;;5098963;27;20061;-79
2022/10/15 12:26:22;;;;;;;24.23;15.13;;;;;;;;;;5134575;27;20514;-79
2022/10/15 12:28:50;;;;;;;27.33;15.60;;;;;;;;;;5124074;27;20128;-79
2022/10/15 12:31:19;;;;;;;23.88;14.57;;;;;;;;;;5111977;27;20075;-79
2022/10/15 12:33:48;;;;;;;25.85;15.88;;;;;;;;;;5115696;27;20047;-79
2022/10/15 12:36:21;;;;;;;23.40;14.88;;;;;;;;;;5115498;27;20043;-79
2022/10/15 12:38:56;;;;;;;26.73;16.30;;;;;;;;;;5107688;28;20039;-79
2022/10/15 12:41:33;;;;;;;27.75;16.00;;;;;;;;;;5110691;27;20104;-79
2022/10/15 12:44:20;;;;;;;24.90;15.38;;;;;;;;;;5115983;27;20031;-79
2022/10/15 12:46:45;;;;;;;;;;;;;;;;;;5115367;27;20051;-79
2022/10/15 12:49:45;;;;;;;22.45;14.32;;;;;;;;;;5115512;27;20375;-79
2022/10/15 12:52:29;;;;;;;25.85;14.98;;;;;;;;;;5115690;27;20126;-79
2022/10/15 12:55:16;;;;;;;26.35;13.80;;;;;;;;;;5133484;27;20056;-70
2022/10/15 12:57:52;;;;;;;26.73;15.00;;;;;;;;;;5133655;27;20043;-70
2022/10/15 13:00:33;;;;;;;24.80;14.63;;;;;;;;;;5098325;27;20034;-69
2022/10/15 13:03:28;;;;;;;24.92;14.32;;;;;;;;;;5086729;28;20040;-70
2022/10/15 13:05:55;;;;;;;22.27;13.88;;;;;;;;;;5089251;27;20054;-78
2022/10/15 13:08:25;;;;;;;21.75;13.38;;;;;;;;;;5098226;27;20043;-70
2022/10/15 13:10:56;;;;;;;22.38;13.27;;;;;;;;;;5109056;28;20436;-69
2022/10/15 13:13:24;;;;;;;25.05;13.90;;;;;;;;;;5107576;27;20074;-69
2022/10/15 13:15:52;;;;;;;21.33;13.25;;;;;;;;;;5114719;27;20511;-70
2022/10/15 13:18:20;;;;;;;22.40;12.65;;;;;;;;;;5133454;27;20038;-78
2022/10/15 13:20:49;;;;;;;23.00;13.10;;;;;;;;;;5133195;27;20506;-79
2022/10/15 13:23:20;;;;;;;18.45;10.85;;;;;;;;;;5115293;27;20562;-79
2022/10/15 13:25:46;;;;;;;19.33;11.52;;;;;;;;;;5114699;27;20043;-79
2022/10/15 13:28:32;;;;;;;16.08;10.05;;;;;;;;;;5109968;28;20039;-79
2022/10/15 13:30:59;;;;;;;20.65;11.00;;;;;;;;;;5108781;27;20042;-79
2022/10/15 13:33:25;;;;;;;16.70;11.05;;;;;;;;;;5114866;28;20038;-78
2022/10/15 13:35:51;;;;;;;15.85;9.68;;;;;;;;;;5114722;28;20425;-79
2022/10/15 13:38:22;;;;;;;15.60;9.85;;;;;;;;;;5114960;28;20395;-78
2022/10/15 13:40:49;;;;;;;14.93;9.73;;;;;;;;;;5133079;28;20428;-79
2022/10/15 13:43:17;;;;;;;15.27;9.77;;;;;;;;;;5097521;28;20043;-79
2022/10/15 13:45:52;;;;;;;16.45;10.23;;;;;;;;;;5133031;28;20132;-79
2022/10/15 13:48:23;;;;;;;14.77;9.30;;;;;;;;;;5133007;28;20071;-78
2022/10/15 13:50:52;;;;;;;15.23;8.70;;;;;;;;;;5114277;28;20089;-78
2022/10/15 13:53:21;;;;;;;13.68;8.60;;;;;;;;;;5114550;28;20039;-79
2022/10/15 13:55:48;;;;;;;12.95;7.95;;;;;;;;;;5132557;28;20054;-78
2022/10/15 13:58:14;;;;;;;15.15;8.98;;;;;;;;;;5132868;28;20075;-78
2022/10/15 14:00:41;;;;;;;15.27;8.48;;;;;;;;;;5108181;28;20031;-78
2022/10/15 14:03:10;;;;;;;13.23;8.30;;;;;;;;;;5125261;28;20495;-79
2022/10/15 14:05:36;;;;;;;13.80;7.50;;;;;;;;;;5097158;28;20135;-78
2022/10/15 14:08:02;;;;;;;11.27;7.07;;;;;;;;;;5133143;28;20039;-79
2022/10/15 14:10:28;;;;;;;8.43;6.43;;;;;;;;;;5133074;28;20043;-78
2022/10/15 14:12:54;;;;;;;10.98;6.95;;;;;;;;;;5093934;28;20484;-79
2022/10/15 14:15:43;;;;;;;10.48;6.57;;;;;;;;;;5113080;27;20373;-79
2022/10/15 14:18:10;;;;;;;10.57;5.97;;;;;;;;;;5137000;27;20043;-78
2022/10/15 14:20:36;;;;;;;9.30;6.18;;;;;;;;;;5087025;27;20507;-78
2022/10/15 14:23:02;;;;;;;9.13;5.97;;;;;;;;;;5118257;27;20071;-79
2022/10/15 14:25:28;;;;;;;8.43;5.70;;;;;;;;;;5118330;27;20122;-79
2022/10/15 14:27:54;;;;;;;9.20;5.68;;;;;;;;;;5134102;27;20039;-79